createdAt,value
2018-04-06T00:00:21.241Z,9.90
2018-04-06T00:02:49.491Z,8.90
2018-04-06T00:05:18.259Z,9.60
2018-04-06T00:07:46.059Z,10.57
2018-04-06T00:10:15.539Z,9.33
2018-04-06T00:12:44.191Z,9.23
2018-04-06T00:15:12.110Z,10.97
2018-04-06T00:40:30.812Z,3.80
2018-04-06T00:42:59.452Z,4.33
2018-04-06T00:45:27.191Z,4.27
2018-04-06T00:47:57.440Z,7.25
2018-04-06T00:50:25.433Z,11.10
2018-04-06T00:52:53.266Z,8.00
2018-04-06T00:55:20.824Z,8.17
2018-04-06T00:57:48.385Z,7.30
2018-04-06T01:00:17.015Z,9.30
2018-04-06T01:02:44.935Z,9.63
2018-04-06T01:05:12.507Z,10.03
2018-04-06T01:07:40.174Z,8.93
2018-04-06T01:10:08.044Z,9.03
2018-04-06T01:12:36.558Z,10.27
2018-04-06T01:15:04.894Z,8.90
2018-04-06T01:17:32.683Z,8.07
2018-04-06T01:20:01.380Z,8.10
2018-04-06T01:22:30.155Z,8.57
2018-04-06T01:24:57.817Z,9.50
2018-04-06T01:27:25.495Z,9.30
2018-04-06T01:29:54.058Z,8.97
2018-04-06T01:32:22.514Z,8.73
2018-04-06T01:34:51.017Z,9.40
2018-04-06T01:37:19.534Z,9.87
2018-04-06T01:39:47.221Z,8.87
2018-04-06T01:42:15.026Z,9.00
2018-04-06T01:44:42.872Z,9.90
2018-04-06T01:47:11.419Z,11.57
2018-04-06T01:49:40.308Z,9.80
2018-04-06T01:52:08.366Z,7.50
2018-04-06T01:54:36.235Z,7.97
2018-04-06T01:57:04.169Z,8.20
2018-04-06T01:59:32.072Z,8.80
2018-04-06T02:01:59.849Z,8.47
2018-04-06T02:04:27.731Z,8.50
2018-04-06T02:06:56.459Z,8.30
2018-04-06T02:09:24.194Z,8.60
2018-04-06T02:11:53.185Z,7.60
2018-04-06T02:14:21.247Z,8.60
2018-04-06T02:16:49.308Z,9.13
2018-04-06T02:19:17.050Z,8.80
2018-04-06T02:21:45.630Z,8.67
2018-04-06T02:24:13.388Z,7.80
2018-04-06T02:26:41.183Z,8.60
2018-04-06T02:29:08.973Z,8.23
2018-04-06T02:31:37.520Z,8.57
2018-04-06T02:34:05.489Z,8.80
2018-04-06T02:36:33.136Z,8.50
2018-04-06T02:39:00.960Z,8.50
2018-04-06T02:41:29.180Z,9.20
2018-04-06T02:43:57.678Z,9.53
2018-04-06T02:46:25.640Z,8.90
2018-04-06T02:48:53.656Z,9.13
2018-04-06T02:51:21.429Z,9.20
2018-04-06T02:53:49.174Z,8.07
2018-04-06T02:56:17.111Z,8.77
2018-04-06T02:58:45.776Z,8.13
2018-04-06T03:01:14.481Z,8.43
2018-04-06T03:03:42.382Z,8.10
2018-04-06T03:06:10.240Z,7.60
2018-04-06T03:08:38.689Z,8.57
2018-04-06T03:11:07.486Z,7.80
2018-04-06T03:13:36.041Z,8.20
2018-04-06T03:16:05.266Z,8.40
2018-04-06T03:18:33.164Z,8.30
2018-04-06T03:21:01.403Z,8.67
2018-04-06T03:23:29.308Z,8.50
2018-04-06T03:25:57.032Z,8.50
2018-04-06T03:28:25.225Z,7.47
2018-04-06T03:30:52.964Z,8.60
2018-04-06T03:33:20.854Z,7.30
2018-04-06T03:35:48.737Z,8.40
2018-04-06T03:38:16.780Z,7.73
2018-04-06T03:40:45.459Z,8.03
2018-04-06T03:43:13.230Z,8.60
2018-04-06T03:45:41.080Z,7.90
2018-04-06T03:48:09.284Z,8.10
2018-04-06T03:50:36.987Z,7.90
2018-04-06T03:53:04.772Z,8.10
2018-04-06T03:55:32.613Z,8.30
2018-04-06T03:58:00.449Z,8.13
2018-04-06T04:00:28.435Z,8.17
2018-04-06T04:02:56.042Z,7.73
2018-04-06T04:05:23.725Z,7.90
2018-04-06T04:07:51.338Z,7.80
2018-04-06T04:10:19.067Z,7.80
2018-04-06T04:12:48.806Z,7.77
2018-04-06T04:15:17.649Z,8.30
2018-04-06T04:17:45.642Z,8.80
2018-04-06T04:20:13.720Z,8.37
2018-04-06T04:22:42.195Z,7.97
2018-04-06T04:25:10.014Z,8.70
2018-04-06T04:27:38.207Z,7.60
2018-04-06T04:30:05.999Z,8.67
2018-04-06T04:32:33.782Z,7.83
2018-04-06T04:35:02.013Z,7.23
2018-04-06T04:37:30.075Z,8.20
2018-04-06T04:39:58.434Z,7.50
2018-04-06T04:42:26.656Z,7.97
2018-04-06T04:44:54.464Z,7.90
2018-04-06T04:47:22.413Z,8.40
2018-04-06T04:49:50.233Z,7.70
2018-04-06T04:52:17.907Z,7.23
2018-04-06T04:54:46.545Z,7.77
2018-04-06T04:57:15.400Z,9.27
2018-04-06T04:59:43.253Z,7.23
2018-04-06T05:02:11.302Z,7.33
2018-04-06T05:04:39.706Z,7.50
2018-04-06T05:07:07.947Z,8.23
2018-04-06T05:09:35.713Z,7.33
2018-04-06T05:12:03.391Z,8.23
2018-04-06T05:14:31.135Z,7.73
2018-04-06T05:16:59.641Z,8.50
2018-04-06T05:19:27.509Z,7.93
2018-04-06T05:21:56.006Z,7.93
2018-04-06T05:24:24.026Z,7.80
2018-04-06T05:26:51.740Z,8.30
2018-04-06T05:29:20.329Z,7.80
2018-04-06T05:31:48.168Z,7.60
2018-04-06T05:34:15.899Z,8.13
2018-04-06T05:36:44.204Z,7.40
2018-04-06T05:39:12.110Z,7.60
2018-04-06T05:41:40.041Z,7.90
2018-04-06T05:44:08.531Z,8.10
2018-04-06T05:46:36.396Z,7.93
2018-04-06T05:49:04.245Z,7.00
2018-04-06T05:51:32.827Z,8.30
2018-04-06T05:54:01.695Z,7.60
2018-04-06T05:56:29.528Z,7.90
2018-04-06T05:58:57.500Z,7.40
2018-04-06T06:01:26.349Z,7.60
2018-04-06T06:03:54.531Z,7.63
2018-04-06T06:06:22.222Z,7.57
2018-04-06T06:08:50.067Z,7.87
2018-04-06T06:11:18.664Z,8.20
2018-04-06T06:13:47.441Z,7.23
2018-04-06T06:16:15.166Z,6.93
2018-04-06T06:18:42.939Z,7.73
2018-04-06T06:21:10.619Z,7.97
2018-04-06T06:23:38.636Z,8.00
2018-04-06T06:26:07.150Z,8.20
2018-04-06T06:28:35.323Z,8.80
2018-04-06T06:31:03.161Z,7.70
2018-04-06T06:33:31.734Z,6.80
2018-04-06T06:35:59.523Z,7.73
2018-04-06T06:38:27.441Z,7.37
2018-04-06T06:40:55.181Z,7.50
2018-04-06T06:43:22.956Z,7.97
2018-04-06T06:45:51.285Z,7.77
2018-04-06T06:48:19.084Z,7.40
2018-04-06T06:50:46.877Z,7.63
2018-04-06T06:53:14.785Z,7.40
2018-04-06T06:55:43.471Z,7.30
2018-04-06T06:58:13.041Z,8.30
2018-04-06T07:00:41.003Z,8.07
2018-04-06T07:03:08.914Z,7.30
2018-04-06T07:05:36.810Z,7.00
2018-04-06T07:08:04.776Z,7.20
2018-04-06T07:10:33.334Z,6.90
2018-04-06T07:13:01.132Z,6.23
2018-04-06T07:15:28.922Z,6.90
2018-04-06T07:17:56.645Z,7.30
2018-04-06T07:20:24.529Z,7.53
2018-04-06T07:22:52.356Z,6.23
2018-04-06T07:25:20.157Z,7.37
2018-04-06T07:27:48.038Z,7.23
2018-04-06T07:30:15.983Z,7.13
2018-04-06T07:32:46.320Z,7.13
2018-04-06T07:35:14.176Z,7.67
2018-04-06T07:37:42.271Z,6.87
2018-04-06T07:40:10.383Z,7.03
2018-04-06T07:42:38.098Z,7.00
2018-04-06T07:45:05.929Z,6.40
2018-04-06T07:47:33.768Z,7.60
2018-04-06T07:50:01.409Z,7.87
2018-04-06T07:52:29.938Z,7.53
2018-04-06T07:54:58.844Z,7.00
2018-04-06T07:57:27.216Z,6.60
2018-04-06T07:59:55.036Z,7.00
2018-04-06T08:02:22.830Z,7.20
2018-04-06T08:04:50.597Z,6.50
2018-04-06T08:07:18.388Z,6.80
2018-04-06T08:09:46.303Z,8.13
2018-04-06T08:12:14.022Z,11.30
2018-04-06T08:14:42.824Z,24.57
2018-04-06T08:17:11.541Z,26.30
2018-04-06T08:19:39.566Z,26.67
2018-04-06T08:22:07.316Z,26.60
2018-04-06T08:24:35.218Z,26.90
2018-04-06T08:27:03.516Z,24.83
2018-04-06T08:29:31.045Z,24.77
2018-04-06T08:31:59.730Z,21.97
2018-04-06T08:34:28.034Z,19.30
2018-04-06T08:36:55.666Z,19.67
2018-04-06T08:39:23.957Z,18.00
2018-04-06T08:41:51.788Z,17.67
2018-04-06T08:44:20.588Z,16.10
2018-04-06T08:46:48.108Z,13.30
2018-04-06T08:49:15.579Z,10.67
2018-04-06T08:51:43.204Z,9.73
2018-04-06T08:54:12.586Z,9.40
2018-04-06T08:56:40.999Z,11.37
2018-04-06T08:59:09.039Z,8.27
2018-04-06T09:01:36.733Z,6.83
2018-04-06T09:04:05.186Z,7.80
2018-04-06T09:06:32.943Z,7.10
2018-04-06T09:09:00.925Z,7.10
2018-04-06T09:11:28.806Z,6.90
2018-04-06T09:13:56.608Z,7.70
2018-04-06T09:16:24.814Z,9.23
2018-04-06T09:18:52.511Z,8.37
2018-04-06T09:21:21.362Z,8.10
2018-04-06T09:23:49.711Z,6.80
2018-04-06T09:26:17.454Z,7.43
2018-04-06T09:28:45.491Z,7.83
2018-04-06T09:31:14.181Z,7.20
2018-04-06T09:33:42.790Z,8.07
2018-04-06T09:36:10.362Z,6.80
2018-04-06T09:38:37.882Z,7.53
2018-04-06T09:41:05.430Z,7.03
2018-04-06T09:43:32.988Z,7.37
2018-04-06T09:46:01.266Z,6.90
2018-04-06T09:48:29.548Z,7.60
2018-04-06T09:50:57.158Z,6.73
2018-04-06T09:53:25.171Z,6.43
2018-04-06T09:55:52.736Z,7.57
2018-04-06T09:58:21.278Z,7.43
2018-04-06T10:00:49.083Z,6.77
2018-04-06T10:03:16.658Z,8.70
2018-04-06T10:05:44.472Z,7.80
2018-04-06T10:08:12.777Z,7.70
2018-04-06T10:10:41.369Z,8.20
2018-04-06T10:13:09.928Z,10.53
2018-04-06T10:15:38.541Z,11.10
2018-04-06T10:18:06.905Z,10.40
2018-04-06T10:20:34.952Z,11.10
2018-04-06T10:23:02.860Z,10.70
2018-04-06T10:25:30.627Z,11.70
2018-04-06T10:27:58.473Z,11.73
2018-04-06T10:30:26.291Z,10.03
2018-04-06T10:32:54.092Z,11.73
2018-04-06T10:35:21.799Z,10.17
2018-04-06T10:37:49.682Z,10.60
2018-04-06T10:40:19.217Z,10.43
2018-04-06T10:42:47.139Z,12.00
2018-04-06T10:45:15.650Z,11.63
2018-04-06T10:47:43.637Z,10.23
2018-04-06T10:50:11.370Z,10.00
2018-04-06T10:52:39.846Z,11.70
2018-04-06T10:55:07.807Z,13.77
2018-04-06T10:57:35.583Z,11.13
2018-04-06T11:00:03.955Z,10.07
2018-04-06T11:02:32.488Z,10.30
2018-04-06T11:05:01.035Z,11.57
2018-04-06T11:07:28.764Z,10.97
2018-04-06T11:09:56.441Z,10.90
2018-04-06T11:12:24.310Z,10.83
2018-04-06T11:14:52.065Z,10.57
2018-04-06T11:17:20.358Z,11.97
2018-04-06T11:19:48.745Z,11.70
2018-04-06T11:22:17.750Z,20.40
2018-04-06T11:24:46.386Z,21.17
2018-04-06T11:27:14.207Z,14.37
2018-04-06T11:29:41.846Z,17.10
2018-04-06T11:32:09.620Z,12.23
2018-04-06T11:34:37.300Z,10.40
2018-04-06T11:37:05.312Z,10.07
2018-04-06T11:39:33.257Z,9.30
2018-04-06T11:42:01.120Z,8.67
2018-04-06T11:44:29.029Z,9.93
2018-04-06T11:46:57.011Z,11.00
2018-04-06T11:49:24.666Z,11.83
2018-04-06T11:51:52.572Z,13.53
2018-04-06T11:54:20.489Z,11.90
2018-04-06T11:56:48.079Z,8.87
2018-04-06T11:59:15.839Z,8.03
2018-04-06T12:01:43.790Z,7.03
2018-04-06T12:04:11.337Z,7.57
2018-04-06T12:06:38.907Z,7.47
2018-04-06T12:09:07.062Z,8.13
2018-04-06T12:11:35.647Z,9.67
2018-04-06T12:14:03.236Z,8.80
2018-04-06T12:16:30.855Z,10.33
2018-04-06T12:18:58.460Z,10.13
2018-04-06T12:21:26.765Z,9.00
2018-04-06T12:23:54.539Z,10.07
2018-04-06T12:26:23.052Z,9.97
2018-04-06T12:28:50.858Z,8.60
2018-04-06T12:31:18.390Z,10.10
2018-04-06T12:33:46.659Z,9.77
2018-04-06T12:36:14.909Z,9.30
2018-04-06T12:38:43.858Z,7.97
2018-04-06T12:41:11.524Z,10.20
2018-04-06T12:43:39.622Z,9.90
2018-04-06T12:46:08.591Z,9.82
2018-04-06T12:48:36.414Z,11.07
2018-04-06T12:51:04.294Z,9.60
2018-04-06T12:53:33.287Z,10.10
2018-04-06T12:56:01.217Z,9.37
2018-04-06T12:58:28.844Z,10.47
2018-04-06T13:00:56.630Z,9.87
2018-04-06T13:03:24.306Z,10.33
2018-04-06T13:05:51.961Z,10.07
2018-04-06T13:08:19.728Z,12.07
2018-04-06T13:10:48.543Z,10.67
2018-04-06T13:13:16.500Z,9.50
2018-04-06T13:15:44.910Z,10.40
2018-04-06T13:18:12.666Z,9.80
2018-04-06T13:20:40.448Z,10.10
2018-04-06T13:23:08.211Z,10.30
2018-04-06T13:25:35.880Z,10.30
2018-04-06T13:28:04.438Z,11.12
2018-04-06T13:30:32.050Z,9.10
2018-04-06T13:32:59.647Z,8.95
2018-04-06T13:35:28.136Z,11.43
2018-04-06T13:37:56.493Z,9.90
2018-04-06T13:40:24.182Z,9.70
2018-04-06T13:42:52.435Z,9.00
2018-04-06T14:08:10.262Z,13.40
2018-04-06T14:10:38.620Z,11.93
2018-04-06T14:13:06.831Z,13.37
2018-04-06T14:15:34.961Z,15.40
2018-04-06T14:18:02.643Z,14.67
2018-04-06T14:20:30.200Z,13.80
2018-04-06T14:22:58.552Z,11.90
2018-04-06T14:25:26.371Z,12.60
2018-04-06T14:27:54.049Z,13.03
2018-04-06T14:30:21.650Z,11.63
2018-04-06T14:32:49.758Z,12.30
2018-04-06T15:01:22.790Z,11.10
2018-04-06T15:03:51.234Z,10.77
2018-04-06T15:06:19.851Z,10.97
2018-04-06T15:08:48.969Z,10.13
2018-04-06T15:27:32.442Z,10.33
2018-04-06T15:30:00.065Z,10.00
2018-04-06T15:32:27.920Z,9.67
2018-04-06T15:34:55.610Z,9.60
2018-04-06T15:37:23.482Z,9.80
2018-04-06T15:56:06.685Z,9.83
2018-04-06T15:58:35.411Z,9.13
2018-04-06T16:01:03.012Z,9.43
2018-04-06T16:03:30.780Z,9.90
2018-04-06T16:05:58.379Z,8.40
2018-04-06T16:08:27.873Z,9.00
2018-04-06T16:27:12.159Z,8.30
2018-04-06T16:52:24.857Z,9.13
2018-04-06T16:54:52.738Z,8.90
2018-04-06T16:57:20.462Z,8.53
2018-04-06T16:59:48.139Z,8.83
2018-04-06T17:02:15.795Z,10.37
2018-04-06T17:04:43.791Z,8.47
2018-04-06T17:07:11.310Z,8.80
2018-04-06T17:09:39.838Z,8.90
2018-04-06T17:12:07.664Z,9.17
2018-04-06T17:14:35.466Z,8.70
2018-04-06T17:17:03.792Z,8.10
2018-04-06T17:19:31.452Z,8.20
2018-04-06T17:21:59.838Z,8.90
2018-04-06T17:24:27.565Z,9.40
2018-04-06T17:26:55.161Z,7.70
2018-04-06T17:29:23.089Z,8.00
2018-04-06T17:31:50.771Z,7.90
2018-04-06T17:34:18.639Z,7.87
2018-04-06T17:36:46.589Z,8.07
2018-04-06T17:39:14.670Z,8.00
2018-04-06T17:41:43.181Z,7.50
2018-04-06T17:44:10.850Z,8.67
2018-04-06T17:46:38.879Z,8.97
2018-04-06T18:11:51.655Z,8.73
2018-04-06T18:14:21.462Z,8.30
2018-04-06T18:16:49.639Z,8.13
2018-04-06T18:19:17.456Z,9.23
2018-04-06T18:21:45.075Z,8.63
2018-04-06T18:24:12.917Z,8.90
2018-04-06T18:26:41.075Z,7.30
2018-04-06T18:29:09.499Z,8.60
2018-04-06T18:31:37.204Z,8.63
2018-04-06T18:34:04.831Z,8.40
2018-04-06T18:36:32.661Z,7.87
2018-04-06T18:39:00.575Z,8.93
2018-04-06T18:41:28.184Z,8.13
2018-04-06T18:43:56.833Z,8.50
2018-04-06T18:46:25.367Z,8.00
2018-04-06T18:48:53.088Z,7.70
2018-04-06T18:51:21.516Z,7.70
2018-04-06T18:53:49.404Z,8.40
2018-04-06T18:56:17.152Z,8.35
2018-04-06T18:58:44.955Z,9.00
2018-04-06T19:01:12.537Z,8.70
2018-04-06T19:19:57.224Z,8.10
2018-04-06T19:22:26.113Z,8.50
2018-04-06T19:24:53.652Z,7.43
2018-04-06T19:27:21.751Z,8.40
2018-04-06T19:29:49.326Z,8.20
2018-04-06T19:32:17.606Z,7.53
2018-04-06T19:34:45.255Z,7.90
2018-04-06T19:37:13.797Z,8.17
2018-04-06T19:39:41.633Z,7.17
2018-04-06T19:42:09.469Z,8.20
2018-04-06T19:44:37.158Z,8.10
2018-04-06T19:47:04.952Z,7.13
2018-04-06T19:49:32.783Z,7.60
2018-04-06T19:52:01.420Z,7.60
2018-04-06T19:54:29.158Z,7.63
2018-04-06T19:56:57.195Z,7.93
2018-04-06T19:59:24.811Z,7.63
2018-04-06T20:01:53.549Z,7.97
2018-04-06T20:04:21.913Z,6.90
2018-04-06T20:06:49.602Z,7.60
2018-04-06T20:09:17.277Z,7.87
2018-04-06T20:11:45.835Z,6.67
2018-04-06T20:14:13.919Z,7.03
2018-04-06T20:16:41.585Z,6.57
2018-04-06T20:19:09.199Z,6.83
2018-04-06T20:21:38.716Z,7.03
2018-04-06T20:24:08.642Z,7.70
2018-04-06T20:26:36.535Z,7.17
2018-04-06T20:29:04.981Z,7.47
2018-04-06T20:31:32.825Z,6.80
2018-04-06T20:34:00.564Z,6.20
2018-04-06T20:36:29.269Z,6.50
2018-04-06T20:38:57.686Z,6.83
2018-04-06T20:44:00.263Z,6.77
2018-04-06T20:46:28.721Z,7.87
2018-04-06T20:48:56.622Z,8.60
2018-04-06T20:51:24.875Z,6.10
2018-04-06T20:53:52.746Z,5.67
2018-04-06T20:56:20.704Z,7.40
2018-04-06T20:58:48.336Z,6.57
2018-04-06T21:01:15.872Z,8.00
2018-04-06T21:03:43.820Z,7.63
2018-04-06T21:06:11.594Z,7.40
2018-04-06T21:08:39.223Z,7.80
2018-04-06T21:11:06.846Z,8.00
2018-04-06T21:13:35.429Z,7.83
2018-04-06T21:16:03.843Z,6.40
2018-04-06T21:18:32.598Z,6.65
2018-04-06T21:21:00.293Z,6.62
2018-04-06T21:23:28.806Z,7.30
2018-04-06T21:25:56.645Z,7.00
2018-04-06T21:28:24.272Z,7.03
2018-04-06T21:30:52.661Z,7.10
2018-04-06T21:33:20.263Z,7.17
2018-04-06T21:35:47.956Z,7.80
2018-04-06T21:38:15.961Z,6.85
2018-04-06T21:40:43.867Z,7.43
2018-04-06T21:43:12.362Z,6.97
2018-04-06T21:45:40.063Z,7.15
2018-04-06T21:48:08.426Z,7.00
2018-04-06T21:50:36.240Z,7.73
2018-04-06T21:53:04.038Z,7.73
2018-04-06T21:55:32.125Z,6.67
2018-04-06T21:58:00.176Z,5.30
2018-04-06T22:00:27.822Z,6.30
2018-04-06T22:19:15.766Z,8.33
2018-04-06T22:21:45.260Z,7.80
2018-04-06T22:24:12.878Z,6.50
2018-04-06T22:26:41.281Z,7.40
2018-04-06T22:29:09.034Z,7.03
2018-04-06T22:31:37.489Z,6.50
2018-04-06T22:34:05.316Z,5.83
2018-04-06T22:36:32.930Z,5.63
2018-04-06T22:39:00.644Z,5.63
2018-04-06T22:41:29.587Z,5.40
2018-04-06T23:00:14.760Z,6.87
2018-04-06T23:02:42.598Z,6.40
2018-04-06T23:05:10.410Z,6.77
2018-04-06T23:07:38.539Z,7.23
2018-04-06T23:10:06.421Z,5.50
2018-04-06T23:12:34.163Z,6.50
2018-04-06T23:15:02.045Z,6.90
2018-04-06T23:17:30.070Z,6.30
2018-04-06T23:19:58.432Z,5.03
2018-04-06T23:22:26.110Z,5.30
2018-04-06T23:24:53.889Z,5.50
2018-04-06T23:43:55.370Z,6.70
2018-04-06T23:46:23.427Z,7.25
2018-04-06T23:48:54.953Z,6.98
